sensor_id;sensor_type;location;lat;lon;timestamp;P1;durP1;ratioP1;P2;durP2;ratioP2
40122;SDS011;25832;45.490;4.912;2022-08-19T00:00:23;8.98;;;6.05;;
40122;SDS011;25832;45.490;4.912;2022-08-19T00:02:49;7.65;;;6.35;;
40122;SDS011;25832;45.490;4.912;2022-08-19T00:05:16;8.50;;;5.90;;
40122;SDS011;25832;45.490;4.912;2022-08-19T00:07:44;7.25;;;6.50;;
40122;SDS011;25832;45.490;4.912;2022-08-19T00:10:11;7.65;;;6.85;;
40122;SDS011;25832;45.490;4.912;2022-08-19T00:12:38;7.32;;;6.05;;
40122;SDS011;25832;45.490;4.912;2022-08-19T00:15:05;6.90;;;6.15;;
40122;SDS011;25832;45.490;4.912;2022-08-19T00:17:41;7.38;;;5.55;;
40122;SDS011;25832;45.490;4.912;2022-08-19T00:20:09;8.65;;;7.00;;
40122;SDS011;25832;45.490;4.912;2022-08-19T00:22:38;6.70;;;5.95;;
40122;SDS011;25832;45.490;4.912;2022-08-19T00:25:06;6.72;;;6.00;;
40122;SDS011;25832;45.490;4.912;2022-08-19T00:27:33;6.93;;;6.18;;
40122;SDS011;25832;45.490;4.912;2022-08-19T00:29:59;7.07;;;5.68;;
40122;SDS011;25832;45.490;4.912;2022-08-19T00:32:25;10.02;;;6.80;;
40122;SDS011;25832;45.490;4.912;2022-08-19T00:34:51;9.32;;;5.63;;
40122;SDS011;25832;45.490;4.912;2022-08-19T00:37:21;8.00;;;6.97;;
40122;SDS011;25832;45.490;4.912;2022-08-19T00:39:50;7.38;;;6.50;;
40122;SDS011;25832;45.490;4.912;2022-08-19T00:42:17;9.30;;;6.75;;
40122;SDS011;25832;45.490;4.912;2022-08-19T00:44:44;9.05;;;6.10;;
40122;SDS011;25832;45.490;4.912;2022-08-19T00:47:09;7.68;;;6.28;;
40122;SDS011;25832;45.490;4.912;2022-08-19T00:49:47;8.43;;;7.13;;
40122;SDS011;25832;45.490;4.912;2022-08-19T00:52:38;11.10;;;7.40;;
40122;SDS011;25832;45.490;4.912;2022-08-19T00:55:11;8.65;;;5.57;;
40122;SDS011;25832;45.490;4.912;2022-08-19T00:57:42;7.40;;;6.18;;
40122;SDS011;25832;45.490;4.912;2022-08-19T01:00:13;8.93;;;6.70;;
40122;SDS011;25832;45.490;4.912;2022-08-19T01:02:42;9.38;;;6.28;;
40122;SDS011;25832;45.490;4.912;2022-08-19T01:05:08;8.43;;;6.68;;
40122;SDS011;25832;45.490;4.912;2022-08-19T01:07:37;7.75;;;5.80;;
40122;SDS011;25832;45.490;4.912;2022-08-19T01:10:06;11.05;;;6.95;;
40122;SDS011;25832;45.490;4.912;2022-08-19T01:12:35;10.52;;;6.47;;
40122;SDS011;25832;45.490;4.912;2022-08-19T01:15:01;7.10;;;5.57;;
40122;SDS011;25832;45.490;4.912;2022-08-19T01:17:28;8.73;;;6.47;;
40122;SDS011;25832;45.490;4.912;2022-08-19T01:19:54;7.75;;;6.45;;
40122;SDS011;25832;45.490;4.912;2022-08-19T01:24:48;8.30;;;6.32;;
40122;SDS011;25832;45.490;4.912;2022-08-19T01:27:14;8.82;;;6.53;;
40122;SDS011;25832;45.490;4.912;2022-08-19T01:29:42;7.47;;;5.63;;
40122;SDS011;25832;45.490;4.912;2022-08-19T01:32:11;8.10;;;6.50;;
40122;SDS011;25832;45.490;4.912;2022-08-19T01:34:39;8.50;;;6.10;;
40122;SDS011;25832;45.490;4.912;2022-08-19T01:37:06;8.73;;;5.40;;
40122;SDS011;25832;45.490;4.912;2022-08-19T01:39:36;7.05;;;5.65;;
40122;SDS011;25832;45.490;4.912;2022-08-19T01:42:03;6.53;;;5.60;;
40122;SDS011;25832;45.490;4.912;2022-08-19T01:44:29;6.20;;;5.55;;
40122;SDS011;25832;45.490;4.912;2022-08-19T01:46:55;7.55;;;5.55;;
40122;SDS011;25832;45.490;4.912;2022-08-19T01:49:21;7.38;;;5.63;;
40122;SDS011;25832;45.490;4.912;2022-08-19T01:51:49;6.05;;;5.10;;
40122;SDS011;25832;45.490;4.912;2022-08-19T01:54:15;7.10;;;5.63;;
40122;SDS011;25832;45.490;4.912;2022-08-19T01:56:43;6.93;;;5.45;;
40122;SDS011;25832;45.490;4.912;2022-08-19T01:59:10;8.00;;;6.15;;
40122;SDS011;25832;45.490;4.912;2022-08-19T02:01:41;7.03;;;5.70;;
40122;SDS011;25832;45.490;4.912;2022-08-19T02:04:07;7.28;;;5.85;;
40122;SDS011;25832;45.490;4.912;2022-08-19T02:06:33;6.95;;;6.13;;
40122;SDS011;25832;45.490;4.912;2022-08-19T02:08:59;9.73;;;6.55;;
40122;SDS011;25832;45.490;4.912;2022-08-19T02:11:29;5.78;;;5.10;;
40122;SDS011;25832;45.490;4.912;2022-08-19T02:13:58;6.32;;;5.72;;
40122;SDS011;25832;45.490;4.912;2022-08-19T02:16:26;11.27;;;5.85;;
40122;SDS011;25832;45.490;4.912;2022-08-19T02:18:52;7.40;;;5.47;;
40122;SDS011;25832;45.490;4.912;2022-08-19T02:21:18;7.32;;;5.93;;
40122;SDS011;25832;45.490;4.912;2022-08-19T02:23:46;7.72;;;6.20;;
40122;SDS011;25832;45.490;4.912;2022-08-19T02:26:13;7.82;;;6.47;;
40122;SDS011;25832;45.490;4.912;2022-08-19T02:28:39;8.73;;;7.15;;
40122;SDS011;25832;45.490;4.912;2022-08-19T02:31:12;6.95;;;6.25;;
40122;SDS011;25832;45.490;4.912;2022-08-19T02:33:40;6.53;;;5.65;;
40122;SDS011;25832;45.490;4.912;2022-08-19T02:36:07;7.15;;;6.18;;
40122;SDS011;25832;45.490;4.912;2022-08-19T02:38:34;6.57;;;5.90;;
40122;SDS011;25832;45.490;4.912;2022-08-19T02:41:03;7.68;;;5.97;;
40122;SDS011;25832;45.490;4.912;2022-08-19T02:43:32;7.72;;;5.93;;
40122;SDS011;25832;45.490;4.912;2022-08-19T02:46:01;7.88;;;5.85;;
40122;SDS011;25832;45.490;4.912;2022-08-19T02:48:36;10.00;;;6.47;;
40122;SDS011;25832;45.490;4.912;2022-08-19T02:51:02;11.77;;;6.25;;
40122;SDS011;25832;45.490;4.912;2022-08-19T02:53:27;7.20;;;5.50;;
40122;SDS011;25832;45.490;4.912;2022-08-19T02:55:53;7.57;;;5.40;;
40122;SDS011;25832;45.490;4.912;2022-08-19T02:58:19;7.72;;;6.25;;
40122;SDS011;25832;45.490;4.912;2022-08-19T03:00:47;8.70;;;5.30;;
40122;SDS011;25832;45.490;4.912;2022-08-19T03:03:14;8.25;;;5.25;;
40122;SDS011;25832;45.490;4.912;2022-08-19T03:05:41;6.65;;;5.35;;
40122;SDS011;25832;45.490;4.912;2022-08-19T03:08:08;10.15;;;6.50;;
40122;SDS011;25832;45.490;4.912;2022-08-19T03:10:43;7.38;;;5.63;;
40122;SDS011;25832;45.490;4.912;2022-08-19T03:13:11;9.50;;;5.82;;
40122;SDS011;25832;45.490;4.912;2022-08-19T03:15:39;10.05;;;6.93;;
40122;SDS011;25832;45.490;4.912;2022-08-19T03:18:06;13.02;;;7.60;;
40122;SDS011;25832;45.490;4.912;2022-08-19T03:20:31;7.20;;;6.43;;
40122;SDS011;25832;45.490;4.912;2022-08-19T03:22:57;7.63;;;6.65;;
40122;SDS011;25832;45.490;4.912;2022-08-19T03:25:23;7.20;;;5.72;;
40122;SDS011;25832;45.490;4.912;2022-08-19T03:27:49;7.72;;;6.25;;
40122;SDS011;25832;45.490;4.912;2022-08-19T03:30:15;7.97;;;6.43;;
40122;SDS011;25832;45.490;4.912;2022-08-19T03:32:40;8.90;;;6.95;;
40122;SDS011;25832;45.490;4.912;2022-08-19T03:35:06;8.07;;;6.88;;
40122;SDS011;25832;45.490;4.912;2022-08-19T03:37:32;6.95;;;6.20;;
40122;SDS011;25832;45.490;4.912;2022-08-19T03:39:58;9.48;;;6.63;;
40122;SDS011;25832;45.490;4.912;2022-08-19T03:42:23;8.82;;;7.30;;
40122;SDS011;25832;45.490;4.912;2022-08-19T03:44:51;9.10;;;6.95;;
40122;SDS011;25832;45.490;4.912;2022-08-19T03:47:17;9.15;;;7.13;;
40122;SDS011;25832;45.490;4.912;2022-08-19T03:49:44;9.07;;;6.85;;
40122;SDS011;25832;45.490;4.912;2022-08-19T03:52:10;10.63;;;7.18;;
40122;SDS011;25832;45.490;4.912;2022-08-19T03:54:36;7.50;;;6.63;;
40122;SDS011;25832;45.490;4.912;2022-08-19T03:57:03;9.40;;;6.05;;
40122;SDS011;25832;45.490;4.912;2022-08-19T03:59:30;8.13;;;5.55;;
40122;SDS011;25832;45.490;4.912;2022-08-19T04:01:59;9.13;;;7.47;;
40122;SDS011;25832;45.490;4.912;2022-08-19T04:04:26;8.20;;;6.05;;
40122;SDS011;25832;45.490;4.912;2022-08-19T04:06:52;7.50;;;6.78;;
40122;SDS011;25832;45.490;4.912;2022-08-19T04:09:19;8.27;;;6.93;;
40122;SDS011;25832;45.490;4.912;2022-08-19T04:11:47;8.05;;;6.82;;
40122;SDS011;25832;45.490;4.912;2022-08-19T04:14:16;10.25;;;7.53;;
40122;SDS011;25832;45.490;4.912;2022-08-19T04:16:43;6.90;;;6.20;;
40122;SDS011;25832;45.490;4.912;2022-08-19T04:19:10;8.90;;;5.97;;
40122;SDS011;25832;45.490;4.912;2022-08-19T04:21:36;6.53;;;5.80;;
40122;SDS011;25832;45.490;4.912;2022-08-19T04:24:02;6.82;;;5.70;;
40122;SDS011;25832;45.490;4.912;2022-08-19T04:26:29;6.82;;;5.25;;
40122;SDS011;25832;45.490;4.912;2022-08-19T04:28:57;7.80;;;5.50;;
40122;SDS011;25832;45.490;4.912;2022-08-19T04:31:28;6.80;;;4.70;;
40122;SDS011;25832;45.490;4.912;2022-08-19T04:33:56;5.63;;;5.03;;
40122;SDS011;25832;45.490;4.912;2022-08-19T04:36:25;5.35;;;4.78;;
40122;SDS011;25832;45.490;4.912;2022-08-19T04:38:53;6.43;;;5.25;;
40122;SDS011;25832;45.490;4.912;2022-08-19T04:41:21;9.13;;;4.75;;
40122;SDS011;25832;45.490;4.912;2022-08-19T04:44:06;4.95;;;4.35;;
40122;SDS011;25832;45.490;4.912;2022-08-19T04:46:32;6.60;;;4.28;;
40122;SDS011;25832;45.490;4.912;2022-08-19T04:48:58;7.05;;;4.32;;
40122;SDS011;25832;45.490;4.912;2022-08-19T04:51:25;5.40;;;4.30;;
40122;SDS011;25832;45.490;4.912;2022-08-19T04:53:51;5.63;;;4.13;;
40122;SDS011;25832;45.490;4.912;2022-08-19T04:56:17;7.15;;;4.90;;
40122;SDS011;25832;45.490;4.912;2022-08-19T04:58:45;5.72;;;3.97;;
40122;SDS011;25832;45.490;4.912;2022-08-19T05:01:12;7.53;;;4.25;;
40122;SDS011;25832;45.490;4.912;2022-08-19T05:03:39;6.50;;;4.15;;
40122;SDS011;25832;45.490;4.912;2022-08-19T05:06:05;6.30;;;4.25;;
40122;SDS011;25832;45.490;4.912;2022-08-19T05:08:33;7.25;;;4.10;;
40122;SDS011;25832;45.490;4.912;2022-08-19T05:11:01;7.72;;;4.28;;
40122;SDS011;25832;45.490;4.912;2022-08-19T05:13:36;5.35;;;4.25;;
40122;SDS011;25832;45.490;4.912;2022-08-19T05:16:03;8.40;;;5.55;;
40122;SDS011;25832;45.490;4.912;2022-08-19T05:18:29;9.25;;;4.25;;
40122;SDS011;25832;45.490;4.912;2022-08-19T05:21:15;11.55;;;5.18;;
40122;SDS011;25832;45.490;4.912;2022-08-19T05:24:01;7.78;;;4.57;;
40122;SDS011;25832;45.490;4.912;2022-08-19T05:26:27;6.88;;;4.95;;
40122;SDS011;25832;45.490;4.912;2022-08-19T05:28:53;9.43;;;5.68;;
40122;SDS011;25832;45.490;4.912;2022-08-19T05:31:20;6.63;;;4.57;;
40122;SDS011;25832;45.490;4.912;2022-08-19T05:33:46;5.40;;;4.15;;
40122;SDS011;25832;45.490;4.912;2022-08-19T05:36:12;7.25;;;4.95;;
40122;SDS011;25832;45.490;4.912;2022-08-19T05:38:39;10.40;;;5.20;;
40122;SDS011;25832;45.490;4.912;2022-08-19T05:41:08;9.88;;;5.00;;
40122;SDS011;25832;45.490;4.912;2022-08-19T05:43:36;9.13;;;5.82;;
40122;SDS011;25832;45.490;4.912;2022-08-19T05:46:03;6.47;;;5.25;;
40122;SDS011;25832;45.490;4.912;2022-08-19T05:48:31;7.75;;;5.05;;
40122;SDS011;25832;45.490;4.912;2022-08-19T05:51:04;10.10;;;5.88;;
40122;SDS011;25832;45.490;4.912;2022-08-19T05:53:33;7.28;;;5.03;;
40122;SDS011;25832;45.490;4.912;2022-08-19T05:56:10;6.93;;;5.70;;
40122;SDS011;25832;45.490;4.912;2022-08-19T05:58:38;8.77;;;6.20;;
40122;SDS011;25832;45.490;4.912;2022-08-19T06:01:04;7.35;;;6.35;;
40122;SDS011;25832;45.490;4.912;2022-08-19T06:03:36;11.25;;;6.40;;
40122;SDS011;25832;45.490;4.912;2022-08-19T06:06:03;10.52;;;6.75;;
40122;SDS011;25832;45.490;4.912;2022-08-19T06:08:30;9.25;;;6.32;;
40122;SDS011;25832;45.490;4.912;2022-08-19T06:10:56;11.27;;;6.35;;
40122;SDS011;25832;45.490;4.912;2022-08-19T06:13:22;10.13;;;6.03;;
40122;SDS011;25832;45.490;4.912;2022-08-19T06:15:48;10.85;;;6.90;;
40122;SDS011;25832;45.490;4.912;2022-08-19T06:18:14;11.52;;;6.75;;
40122;SDS011;25832;45.490;4.912;2022-08-19T06:20:41;10.73;;;6.22;;
40122;SDS011;25832;45.490;4.912;2022-08-19T06:23:06;9.90;;;6.78;;
40122;SDS011;25832;45.490;4.912;2022-08-19T06:25:33;9.13;;;6.60;;
40122;SDS011;25832;45.490;4.912;2022-08-19T06:28:00;12.02;;;7.28;;
40122;SDS011;25832;45.490;4.912;2022-08-19T06:30:27;9.65;;;6.97;;
40122;SDS011;25832;45.490;4.912;2022-08-19T06:32:53;11.15;;;6.93;;
40122;SDS011;25832;45.490;4.912;2022-08-19T06:35:19;12.20;;;7.93;;
40122;SDS011;25832;45.490;4.912;2022-08-19T06:37:44;14.20;;;7.78;;
40122;SDS011;25832;45.490;4.912;2022-08-19T06:40:10;12.75;;;7.63;;
40122;SDS011;25832;45.490;4.912;2022-08-19T06:42:37;11.57;;;8.57;;
40122;SDS011;25832;45.490;4.912;2022-08-19T06:45:04;12.50;;;8.15;;
40122;SDS011;25832;45.490;4.912;2022-08-19T06:47:31;14.48;;;7.93;;
40122;SDS011;25832;45.490;4.912;2022-08-19T06:49:59;10.52;;;8.07;;
40122;SDS011;25832;45.490;4.912;2022-08-19T06:52:28;13.27;;;8.82;;
40122;SDS011;25832;45.490;4.912;2022-08-19T06:54:58;11.88;;;8.32;;
40122;SDS011;25832;45.490;4.912;2022-08-19T06:57:24;13.60;;;9.18;;
40122;SDS011;25832;45.490;4.912;2022-08-19T06:59:51;12.35;;;8.38;;
40122;SDS011;25832;45.490;4.912;2022-08-19T07:02:17;12.38;;;8.27;;
40122;SDS011;25832;45.490;4.912;2022-08-19T07:04:44;10.68;;;8.15;;
40122;SDS011;25832;45.490;4.912;2022-08-19T07:07:11;13.43;;;9.13;;
40122;SDS011;25832;45.490;4.912;2022-08-19T07:09:40;16.98;;;9.82;;
40122;SDS011;25832;45.490;4.912;2022-08-19T07:12:08;13.68;;;9.38;;
40122;SDS011;25832;45.490;4.912;2022-08-19T07:14:36;15.27;;;10.00;;
40122;SDS011;25832;45.490;4.912;2022-08-19T07:17:03;12.25;;;9.63;;
40122;SDS011;25832;45.490;4.912;2022-08-19T07:19:31;13.48;;;9.15;;
40122;SDS011;25832;45.490;4.912;2022-08-19T07:21:57;14.82;;;9.48;;
40122;SDS011;25832;45.490;4.912;2022-08-19T07:24:26;15.70;;;10.02;;
40122;SDS011;25832;45.490;4.912;2022-08-19T07:26:53;17.63;;;10.52;;
40122;SDS011;25832;45.490;4.912;2022-08-19T07:29:21;13.35;;;9.80;;
40122;SDS011;25832;45.490;4.912;2022-08-19T07:31:52;14.38;;;10.02;;
40122;SDS011;25832;45.490;4.912;2022-08-19T07:34:21;14.48;;;10.98;;
40122;SDS011;25832;45.490;4.912;2022-08-19T07:36:48;14.52;;;11.43;;
40122;SDS011;25832;45.490;4.912;2022-08-19T07:39:15;15.70;;;10.63;;
40122;SDS011;25832;45.490;4.912;2022-08-19T07:41:43;19.08;;;11.77;;
40122;SDS011;25832;45.490;4.912;2022-08-19T07:44:10;12.75;;;10.18;;
40122;SDS011;25832;45.490;4.912;2022-08-19T07:46:38;18.17;;;11.80;;
40122;SDS011;25832;45.490;4.912;2022-08-19T07:49:06;15.85;;;11.30;;
40122;SDS011;25832;45.490;4.912;2022-08-19T07:51:34;15.40;;;10.65;;
40122;SDS011;25832;45.490;4.912;2022-08-19T07:54:00;15.07;;;11.32;;
40122;SDS011;25832;45.490;4.912;2022-08-19T07:56:25;15.20;;;11.45;;
40122;SDS011;25832;45.490;4.912;2022-08-19T07:58:51;17.83;;;11.57;;
40122;SDS011;25832;45.490;4.912;2022-08-19T08:01:20;18.17;;;11.38;;
40122;SDS011;25832;45.490;4.912;2022-08-19T08:03:50;13.40;;;10.50;;
40122;SDS011;25832;45.490;4.912;2022-08-19T08:06:35;14.95;;;11.32;;
40122;SDS011;25832;45.490;4.912;2022-08-19T08:09:23;14.98;;;9.48;;
40122;SDS011;25832;45.490;4.912;2022-08-19T08:14:21;12.80;;;9.80;;
40122;SDS011;25832;45.490;4.912;2022-08-19T08:16:55;13.02;;;8.85;;
40122;SDS011;25832;45.490;4.912;2022-08-19T08:19:21;14.68;;;9.82;;
40122;SDS011;25832;45.490;4.912;2022-08-19T08:21:48;14.05;;;9.55;;
40122;SDS011;25832;45.490;4.912;2022-08-19T08:24:15;10.02;;;8.40;;
40122;SDS011;25832;45.490;4.912;2022-08-19T08:26:41;12.82;;;10.00;;
40122;SDS011;25832;45.490;4.912;2022-08-19T08:29:09;12.88;;;9.88;;
40122;SDS011;25832;45.490;4.912;2022-08-19T08:31:42;14.98;;;11.60;;
40122;SDS011;25832;45.490;4.912;2022-08-19T08:34:09;17.30;;;11.75;;
40122;SDS011;25832;45.490;4.912;2022-08-19T08:36:37;17.27;;;12.38;;
40122;SDS011;25832;45.490;4.912;2022-08-19T08:39:06;16.88;;;13.07;;
40122;SDS011;25832;45.490;4.912;2022-08-19T08:47:05;24.80;;;15.27;;
40122;SDS011;25832;45.490;4.912;2022-08-19T08:52:26;24.08;;;16.40;;
40122;SDS011;25832;45.490;4.912;2022-08-19T08:54:56;21.48;;;15.60;;
40122;SDS011;25832;45.490;4.912;2022-08-19T09:00:12;22.33;;;16.30;;
40122;SDS011;25832;45.490;4.912;2022-08-19T09:02:42;22.88;;;15.63;;
40122;SDS011;25832;45.490;4.912;2022-08-19T09:05:09;24.05;;;17.60;;
40122;SDS011;25832;45.490;4.912;2022-08-19T09:13:18;22.98;;;17.33;;
40122;SDS011;25832;45.490;4.912;2022-08-19T09:18:45;26.58;;;18.88;;
40122;SDS011;25832;45.490;4.912;2022-08-19T09:21:13;28.20;;;19.23;;
40122;SDS011;25832;45.490;4.912;2022-08-19T09:23:40;26.13;;;18.45;;
40122;SDS011;25832;45.490;4.912;2022-08-19T09:26:14;21.05;;;16.90;;
40122;SDS011;25832;45.490;4.912;2022-08-19T09:28:43;29.48;;;18.27;;
40122;SDS011;25832;45.490;4.912;2022-08-19T09:31:11;24.70;;;17.38;;
40122;SDS011;25832;45.490;4.912;2022-08-19T09:33:37;25.25;;;17.83;;
40122;SDS011;25832;45.490;4.912;2022-08-19T09:36:04;23.23;;;17.10;;
40122;SDS011;25832;45.490;4.912;2022-08-19T09:38:32;22.17;;;16.40;;
40122;SDS011;25832;45.490;4.912;2022-08-19T09:41:03;21.80;;;15.90;;
40122;SDS011;25832;45.490;4.912;2022-08-19T09:43:29;23.92;;;16.98;;
40122;SDS011;25832;45.490;4.912;2022-08-19T09:45:56;25.75;;;18.08;;
40122;SDS011;25832;45.490;4.912;2022-08-19T09:48:22;26.38;;;20.02;;
40122;SDS011;25832;45.490;4.912;2022-08-19T09:50:47;25.35;;;19.02;;
40122;SDS011;25832;45.490;4.912;2022-08-19T09:53:14;26.95;;;19.77;;
40122;SDS011;25832;45.490;4.912;2022-08-19T09:55:43;27.52;;;20.35;;
40122;SDS011;25832;45.490;4.912;2022-08-19T09:58:09;27.33;;;19.38;;
40122;SDS011;25832;45.490;4.912;2022-08-19T10:00:37;28.98;;;20.00;;
40122;SDS011;25832;45.490;4.912;2022-08-19T10:03:03;26.48;;;19.60;;
40122;SDS011;25832;45.490;4.912;2022-08-19T10:05:29;28.35;;;20.73;;
40122;SDS011;25832;45.490;4.912;2022-08-19T10:08:13;25.08;;;19.73;;
40122;SDS011;25832;45.490;4.912;2022-08-19T10:10:42;23.35;;;18.25;;
40122;SDS011;25832;45.490;4.912;2022-08-19T10:13:09;28.48;;;21.05;;
40122;SDS011;25832;45.490;4.912;2022-08-19T10:15:35;27.98;;;20.27;;
40122;SDS011;25832;45.490;4.912;2022-08-19T10:18:02;25.73;;;19.58;;
40122;SDS011;25832;45.490;4.912;2022-08-19T10:20:27;25.42;;;18.27;;
40122;SDS011;25832;45.490;4.912;2022-08-19T10:22:55;25.65;;;19.48;;
40122;SDS011;25832;45.490;4.912;2022-08-19T10:25:20;28.40;;;21.25;;
40122;SDS011;25832;45.490;4.912;2022-08-19T10:27:46;33.00;;;22.95;;
40122;SDS011;25832;45.490;4.912;2022-08-19T10:30:12;24.67;;;19.05;;
40122;SDS011;25832;45.490;4.912;2022-08-19T10:32:38;23.27;;;17.88;;
40122;SDS011;25832;45.490;4.912;2022-08-19T10:35:05;24.02;;;19.52;;
40122;SDS011;25832;45.490;4.912;2022-08-19T10:37:34;21.42;;;17.42;;
40122;SDS011;25832;45.490;4.912;2022-08-19T10:40:02;27.83;;;23.08;;
40122;SDS011;25832;45.490;4.912;2022-08-19T10:42:32;28.35;;;21.80;;
40122;SDS011;25832;45.490;4.912;2022-08-19T10:44:59;26.63;;;19.10;;
40122;SDS011;25832;45.490;4.912;2022-08-19T10:47:25;24.13;;;18.00;;
40122;SDS011;25832;45.490;4.912;2022-08-19T10:49:51;22.20;;;17.73;;
40122;SDS011;25832;45.490;4.912;2022-08-19T10:52:37;24.95;;;19.25;;
40122;SDS011;25832;45.490;4.912;2022-08-19T10:55:07;24.98;;;18.88;;
40122;SDS011;25832;45.490;4.912;2022-08-19T10:57:52;27.23;;;19.40;;
40122;SDS011;25832;45.490;4.912;2022-08-19T11:00:18;28.88;;;20.98;;
40122;SDS011;25832;45.490;4.912;2022-08-19T11:02:45;27.98;;;20.38;;
40122;SDS011;25832;45.490;4.912;2022-08-19T11:05:11;28.92;;;20.27;;
40122;SDS011;25832;45.490;4.912;2022-08-19T11:07:38;23.92;;;19.50;;
40122;SDS011;25832;45.490;4.912;2022-08-19T11:10:04;29.98;;;22.00;;
40122;SDS011;25832;45.490;4.912;2022-08-19T11:12:30;28.83;;;21.48;;
40122;SDS011;25832;45.490;4.912;2022-08-19T11:14:56;29.30;;;21.77;;
40122;SDS011;25832;45.490;4.912;2022-08-19T11:17:21;24.92;;;20.13;;
40122;SDS011;25832;45.490;4.912;2022-08-19T11:19:48;24.60;;;19.65;;
40122;SDS011;25832;45.490;4.912;2022-08-19T11:22:15;20.42;;;17.90;;
40122;SDS011;25832;45.490;4.912;2022-08-19T11:24:42;24.05;;;18.77;;
40122;SDS011;25832;45.490;4.912;2022-08-19T11:27:08;25.55;;;18.70;;
40122;SDS011;25832;45.490;4.912;2022-08-19T11:29:35;24.05;;;19.55;;
40122;SDS011;25832;45.490;4.912;2022-08-19T11:32:06;22.80;;;17.52;;
40122;SDS011;25832;45.490;4.912;2022-08-19T11:34:34;24.52;;;18.83;;
40122;SDS011;25832;45.490;4.912;2022-08-19T11:37:00;25.45;;;18.48;;
40122;SDS011;25832;45.490;4.912;2022-08-19T11:39:28;18.95;;;15.77;;
40122;SDS011;25832;45.490;4.912;2022-08-19T11:41:57;22.95;;;16.98;;
40122;SDS011;25832;45.490;4.912;2022-08-19T11:44:23;22.80;;;19.13;;
40122;SDS011;25832;45.490;4.912;2022-08-19T11:46:50;24.38;;;16.58;;
40122;SDS011;25832;45.490;4.912;2022-08-19T11:49:18;20.58;;;16.42;;
40122;SDS011;25832;45.490;4.912;2022-08-19T11:51:45;20.77;;;16.70;;
40122;SDS011;25832;45.490;4.912;2022-08-19T11:54:12;17.85;;;15.93;;
40122;SDS011;25832;45.490;4.912;2022-08-19T11:56:39;20.00;;;16.23;;
40122;SDS011;25832;45.490;4.912;2022-08-19T11:59:05;21.02;;;16.05;;
40122;SDS011;25832;45.490;4.912;2022-08-19T12:01:32;20.60;;;16.25;;
40122;SDS011;25832;45.490;4.912;2022-08-19T12:03:58;16.15;;;13.88;;
40122;SDS011;25832;45.490;4.912;2022-08-19T12:06:26;13.48;;;12.07;;
40122;SDS011;25832;45.490;4.912;2022-08-19T12:09:04;18.80;;;13.27;;
40122;SDS011;25832;45.490;4.912;2022-08-19T12:11:33;14.20;;;12.10;;
40122;SDS011;25832;45.490;4.912;2022-08-19T12:13:59;18.65;;;13.70;;
40122;SDS011;25832;45.490;4.912;2022-08-19T12:16:26;15.20;;;11.85;;
40122;SDS011;25832;45.490;4.912;2022-08-19T12:18:54;16.00;;;12.35;;
40122;SDS011;25832;45.490;4.912;2022-08-19T12:21:22;14.30;;;11.88;;
40122;SDS011;25832;45.490;4.912;2022-08-19T12:23:53;15.50;;;12.60;;
40122;SDS011;25832;45.490;4.912;2022-08-19T12:26:20;14.70;;;11.18;;
40122;SDS011;25832;45.490;4.912;2022-08-19T12:28:46;15.45;;;10.32;;
40122;SDS011;25832;45.490;4.912;2022-08-19T12:31:13;12.50;;;10.43;;
40122;SDS011;25832;45.490;4.912;2022-08-19T12:33:40;12.77;;;11.43;;
40122;SDS011;25832;45.490;4.912;2022-08-19T12:36:07;11.57;;;10.02;;
40122;SDS011;25832;45.490;4.912;2022-08-19T12:38:34;10.63;;;9.63;;
40122;SDS011;25832;45.490;4.912;2022-08-19T12:41:01;12.10;;;10.00;;
40122;SDS011;25832;45.490;4.912;2022-08-19T12:43:30;13.80;;;9.80;;
40122;SDS011;25832;45.490;4.912;2022-08-19T12:45:56;14.38;;;10.65;;
40122;SDS011;25832;45.490;4.912;2022-08-19T12:48:22;12.45;;;9.85;;
40122;SDS011;25832;45.490;4.912;2022-08-19T12:50:47;13.85;;;9.80;;
40122;SDS011;25832;45.490;4.912;2022-08-19T12:53:14;10.57;;;8.77;;
40122;SDS011;25832;45.490;4.912;2022-08-19T12:55:40;11.77;;;8.90;;
40122;SDS011;25832;45.490;4.912;2022-08-19T12:58:07;13.10;;;9.57;;
40122;SDS011;25832;45.490;4.912;2022-08-19T13:00:33;11.30;;;9.23;;
40122;SDS011;25832;45.490;4.912;2022-08-19T13:02:59;12.93;;;9.73;;
40122;SDS011;25832;45.490;4.912;2022-08-19T13:05:27;10.15;;;9.15;;
40122;SDS011;25832;45.490;4.912;2022-08-19T13:07:55;8.85;;;7.85;;
40122;SDS011;25832;45.490;4.912;2022-08-19T13:10:24;12.25;;;8.88;;
40122;SDS011;25832;45.490;4.912;2022-08-19T13:12:52;9.30;;;8.38;;
40122;SDS011;25832;45.490;4.912;2022-08-19T13:15:19;12.05;;;10.70;;
40122;SDS011;25832;45.490;4.912;2022-08-19T13:17:47;15.05;;;10.82;;
40122;SDS011;25832;45.490;4.912;2022-08-19T13:20:15;10.65;;;9.55;;
40122;SDS011;25832;45.490;4.912;2022-08-19T13:22:42;18.13;;;11.32;;
40122;SDS011;25832;45.490;4.912;2022-08-19T13:25:09;13.05;;;10.68;;
40122;SDS011;25832;45.490;4.912;2022-08-19T13:27:36;12.38;;;10.00;;
40122;SDS011;25832;45.490;4.912;2022-08-19T13:30:02;11.77;;;10.43;;
40122;SDS011;25832;45.490;4.912;2022-08-19T13:32:47;13.77;;;9.30;;
40122;SDS011;25832;45.490;4.912;2022-08-19T13:35:31;11.88;;;10.10;;
40122;SDS011;25832;45.490;4.912;2022-08-19T13:37:57;14.15;;;9.35;;
40122;SDS011;25832;45.490;4.912;2022-08-19T13:40:24;16.67;;;9.68;;
40122;SDS011;25832;45.490;4.912;2022-08-19T13:42:51;9.95;;;8.95;;
40122;SDS011;25832;45.490;4.912;2022-08-19T13:45:20;12.75;;;8.80;;
40122;SDS011;25832;45.490;4.912;2022-08-19T13:47:48;12.00;;;9.90;;
40122;SDS011;25832;45.490;4.912;2022-08-19T13:50:16;13.38;;;9.35;;
40122;SDS011;25832;45.490;4.912;2022-08-19T13:52:44;13.68;;;10.07;;
40122;SDS011;25832;45.490;4.912;2022-08-19T13:55:11;11.88;;;8.70;;
40122;SDS011;25832;45.490;4.912;2022-08-19T13:57:37;11.10;;;8.95;;
40122;SDS011;25832;45.490;4.912;2022-08-19T14:00:10;10.67;;;8.73;;
40122;SDS011;25832;45.490;4.912;2022-08-19T14:02:38;9.35;;;8.05;;
40122;SDS011;25832;45.490;4.912;2022-08-19T14:05:06;15.20;;;9.65;;
40122;SDS011;25832;45.490;4.912;2022-08-19T14:10:01;10.30;;;8.98;;
40122;SDS011;25832;45.490;4.912;2022-08-19T14:12:28;10.63;;;8.15;;
40122;SDS011;25832;45.490;4.912;2022-08-19T14:14:54;12.13;;;9.70;;
40122;SDS011;25832;45.490;4.912;2022-08-19T14:17:19;8.63;;;7.78;;
40122;SDS011;25832;45.490;4.912;2022-08-19T14:19:46;9.48;;;7.07;;
40122;SDS011;25832;45.490;4.912;2022-08-19T14:22:12;9.93;;;8.40;;
40122;SDS011;25832;45.490;4.912;2022-08-19T14:24:38;10.68;;;8.07;;
40122;SDS011;25832;45.490;4.912;2022-08-19T14:27:06;11.18;;;7.63;;
40122;SDS011;25832;45.490;4.912;2022-08-19T14:29:33;7.50;;;6.75;;
40122;SDS011;25832;45.490;4.912;2022-08-19T14:31:59;9.07;;;7.65;;
40122;SDS011;25832;45.490;4.912;2022-08-19T14:34:25;13.05;;;7.70;;
40122;SDS011;25832;45.490;4.912;2022-08-19T14:36:51;7.88;;;6.32;;
40122;SDS011;25832;45.490;4.912;2022-08-19T14:39:17;7.25;;;5.97;;
40122;SDS011;25832;45.490;4.912;2022-08-19T14:41:43;8.18;;;6.95;;
40122;SDS011;25832;45.490;4.912;2022-08-19T14:44:10;7.22;;;6.20;;
40122;SDS011;25832;45.490;4.912;2022-08-19T14:46:37;7.90;;;6.22;;
40122;SDS011;25832;45.490;4.912;2022-08-19T14:49:05;8.27;;;6.25;;
40122;SDS011;25832;45.490;4.912;2022-08-19T14:51:31;7.65;;;5.72;;
40122;SDS011;25832;45.490;4.912;2022-08-19T14:53:56;7.50;;;6.70;;
40122;SDS011;25832;45.490;4.912;2022-08-19T14:56:23;8.32;;;7.38;;
40122;SDS011;25832;45.490;4.912;2022-08-19T14:58:51;7.95;;;6.43;;
40122;SDS011;25832;45.490;4.912;2022-08-19T15:01:18;9.23;;;5.97;;
40122;SDS011;25832;45.490;4.912;2022-08-19T15:03:45;9.40;;;6.68;;
40122;SDS011;25832;45.490;4.912;2022-08-19T15:06:12;8.52;;;6.68;;